Thunderstorms From: 21-05-2018 15:00 Until: 22-05-2018 15:00 warning for: Thunderstorms Level: Yellow info button

Although rather usual in this region, locally or potentially dangerous phenomena are expected. (such as local winds, summer thunderstorms, rising streams or high waves) Be aware and pay attention to the latest weather updates, especially if you carry out activities exposed to weather or close to a stream or shoreline. 


Meteo18 Weather Cam more information Meteo18 Weather Cam


warning for Thunderstorms more information blitzortung!


Rain radar more information rain snow radar


Visit our other weather sites:

Template documentation
and downloads

And another site



Weather Underground History page Text

Daily Summary for April 25, 2017 Units:  Metric    English   Both
« Previous Day
Next Day »
Daily Weekly Monthly Yearly Custom
  High: Low: Average:
Temperature: -17.8 °C -16.1 °C -13.8 °C
Dew Point: -17.8 °C -16.7 °C -15.5 °C
Humidity: Humidity % 58 % 82 %
Wind Speed: 0 km/h 0 km/h 10.3 km/h
Wind Gust: 0 km/h - -
Wind:- - SSW
Pressure: 0 hPa 34212.1 hPa -
Precipitation: 129.54 mm    
Historical Graphs
 
 
Tabular Data for April 25, 2017
Time Temperature Dew Point Pressure Wind Wind Speed Wind Gust Humidity Rainfall Rate (Hourly)
-17.8 °C -17.8 °C 0 hPa Calm     Humidity % 0 mm
00:02 -11.8 °C -16.2 °C 34279.9 hPa NW 2.6 km/h 7.7 km/h 58 % 0 mm
00:12 -11.9 °C -16.2 °C 34269.7 hPa NW 7.7 km/h 7.7 km/h 59 % 0 mm
00:17 -11.9 °C -16.2 °C 34269.7 hPa NW 5.1 km/h 7.7 km/h 59 % 0 mm
00:22 -11.8 °C -16.2 °C 34269.7 hPa NW 2.6 km/h 7.7 km/h 58 % 0 mm
00:32 -11.9 °C -16.3 °C 34269.7 hPa NW 5.1 km/h 7.7 km/h 58 % 0 mm
00:37 -11.9 °C -16.3 °C 34269.7 hPa NW 5.1 km/h 7.7 km/h 58 % 0 mm
00:42 -11.9 °C -16.2 °C 34269.7 hPa Calm   10.3 km/h 59 % 0 mm
00:47 -12 °C -16.3 °C 34269.7 hPa NNW 7.7 km/h 10.3 km/h 59 % 0 mm
00:52 -12.1 °C -16.3 °C 34269.7 hPa NW 5.1 km/h 7.7 km/h 59 % 0 mm
00:57 -12.1 °C -16.2 °C 34269.7 hPa NW 5.1 km/h 7.7 km/h 60 % 0 mm
01:02 -12.1 °C -16.2 °C 34269.7 hPa NW 2.6 km/h 7.7 km/h 60 % 0 mm
01:07 -12.2 °C -16.3 °C 34269.7 hPa NW 2.6 km/h 10.3 km/h 60 % 0 mm
01:12 -12.2 °C -16.2 °C 34269.7 hPa NW 7.7 km/h 10.3 km/h 61 % 0 mm
01:17 -12.3 °C -16.3 °C 34269.7 hPa NW 5.1 km/h 10.3 km/h 61 % 0 mm
01:22 -12.3 °C -16.3 °C 34269.7 hPa NNW 7.7 km/h 10.3 km/h 61 % 0 mm
01:32 -12.4 °C -16.2 °C 34269.7 hPa NNW 10.3 km/h 10.3 km/h 63 % 0 mm
01:42 -12.7 °C -16.1 °C 34269.7 hPa NNW 5.1 km/h 12.9 km/h 66 % 0 mm
01:47 -12.7 °C -16.1 °C 34269.7 hPa NNW 7.7 km/h 12.9 km/h 66 % 0 mm
01:52 -12.7 °C -15.9 °C 34269.7 hPa North 7.7 km/h 12.9 km/h 67 % 0 mm
01:57 -12.8 °C -16.1 °C 34269.7 hPa NW 5.1 km/h 15.6 km/h 67 % 0 mm
02:02 -12.7 °C -15.8 °C 34269.7 hPa NW 7.7 km/h 15.6 km/h 68 % 0 mm
02:07 -12.7 °C -15.9 °C 34269.7 hPa NW 7.7 km/h 12.9 km/h 67 % 0 mm
02:12 -12.7 °C -15.8 °C 34269.7 hPa NW 7.7 km/h 12.9 km/h 68 % 0 mm
02:17 -12.7 °C -15.8 °C 34269.7 hPa NNW 2.6 km/h 12.9 km/h 68 % 0 mm
02:22 -12.9 °C -15.9 °C 34256.2 hPa NNE 5.1 km/h 12.9 km/h 69 % 0 mm
02:27 -12.9 °C -15.8 °C 34256.2 hPa NNW 5.1 km/h 12.9 km/h 70 % 0 mm
02:32 -12.9 °C -15.8 °C 34256.2 hPa NNW 2.6 km/h 12.9 km/h 70 % 0 mm
02:37 -12.9 °C -15.8 °C 34256.2 hPa NNW 7.7 km/h 10.3 km/h 70 % 0 mm
02:42 -13 °C -15.9 °C 34256.2 hPa NW 5.1 km/h 10.3 km/h 70 % 0 mm
02:47 -13.1 °C -15.8 °C 34256.2 hPa NW 5.1 km/h 10.3 km/h 71 % 0 mm
02:52 -13.1 °C -15.8 °C 34256.2 hPa NW 2.6 km/h 10.3 km/h 72 % 0 mm
02:57 -13.1 °C -15.8 °C 34256.2 hPa Calm   7.7 km/h 72 % 0 mm
03:02 -13.2 °C -15.8 °C 34256.2 hPa NW 5.1 km/h 7.7 km/h 72 % 0 mm
03:07 -13.2 °C -15.7 °C 34256.2 hPa North 2.6 km/h 7.7 km/h 73 % 0 mm
03:12 -13.2 °C -15.8 °C 34256.2 hPa NW 2.6 km/h 7.7 km/h 73 % 0 mm
03:17 -13.2 °C -15.8 °C 34256.2 hPa NNW 5.1 km/h 10.3 km/h 73 % 0 mm
03:22 -13.2 °C -15.7 °C 34256.2 hPa North 7.7 km/h 10.3 km/h 74 % 0 mm
03:32 -13.3 °C -15.7 °C 34246 hPa WNW 2.6 km/h 10.3 km/h 74 % 0 mm
03:37 -13.4 °C -15.8 °C 34246 hPa WNW 5.1 km/h 12.9 km/h 74 % 0 mm
03:42 -13.4 °C -15.8 °C 34246 hPa NW 2.6 km/h 12.9 km/h 75 % 0 mm
03:47 -13.6 °C -15.8 °C 34246 hPa WNW 7.7 km/h 10.3 km/h 75 % 0 mm
03:52 -13.6 °C -15.8 °C 34246 hPa NW 7.7 km/h 10.3 km/h 75 % 0 mm
04:02 -13.5 °C -15.7 °C 34246 hPa NNW 2.6 km/h 10.3 km/h 76 % 0 mm
04:12 -13.6 °C -15.8 °C 34246 hPa WNW 2.6 km/h 12.9 km/h 76 % 0 mm
04:17 -13.6 °C -15.8 °C 34246 hPa NW 5.1 km/h 10.3 km/h 76 % 0 mm
04:22 -13.6 °C -15.8 °C 34246 hPa WNW 2.6 km/h 10.3 km/h 76 % 0 mm
04:32 -13.7 °C -15.8 °C 34246 hPa NW 5.1 km/h 5.1 km/h 77 % 0 mm
04:42 -13.8 °C -15.9 °C 34246 hPa NNW 2.6 km/h 7.7 km/h 77 % 0 mm
04:47 -13.8 °C -15.8 °C 34246 hPa NNW 2.6 km/h 5.1 km/h 78 % 0 mm
04:57 -13.8 °C -15.8 °C 34246 hPa NW 2.6 km/h 5.1 km/h 78 % 0 mm
05:02 -13.8 °C -15.8 °C 34246 hPa NW 2.6 km/h 5.1 km/h 78 % 0 mm
05:12 -13.8 °C -15.8 °C 34246 hPa NW 5.1 km/h 7.7 km/h 78 % 0 mm
05:17 -13.8 °C -15.8 °C 34235.8 hPa NNW 5.1 km/h 7.7 km/h 78 % 0 mm
05:22 -13.8 °C -15.8 °C 34235.8 hPa NW 2.6 km/h 7.7 km/h 78 % 0 mm
05:32 -13.9 °C -15.8 °C 34235.8 hPa NW 2.6 km/h 10.3 km/h 79 % 0 mm
05:42 -13.9 °C -15.8 °C 34235.8 hPa NNW 2.6 km/h 10.3 km/h 79 % 0 mm
05:47 -13.9 °C -15.8 °C 34235.8 hPa NW 2.6 km/h 7.7 km/h 79 % 0 mm
05:52 -13.9 °C -15.8 °C 34235.8 hPa NW 2.6 km/h 7.7 km/h 79 % 0 mm
06:02 -13.9 °C -15.8 °C 34235.8 hPa Calm   10.3 km/h 79 % 0 mm
06:12 -13.9 °C -15.8 °C 34235.8 hPa Calm   7.7 km/h 79 % 0 mm
06:17 -14 °C -15.9 °C 34235.8 hPa Calm   5.1 km/h 79 % 0 mm
06:22 -14.1 °C -16 °C 34235.8 hPa Calm   5.1 km/h 79 % 0 mm
06:32 -14.2 °C -15.9 °C 34235.8 hPa Calm   2.6 km/h 81 % 0 mm
06:42 -14.1 °C -15.8 °C 34235.8 hPa NW 5.1 km/h 7.7 km/h 80 % 0 mm
06:52 -14.1 °C -15.8 °C 34235.8 hPa NW 5.1 km/h 10.3 km/h 80 % 0 mm
07:02 -14.1 °C -15.8 °C 34235.8 hPa NW 2.6 km/h 10.3 km/h 80 % 0 mm
07:12 -13.9 °C -15.7 °C 34235.8 hPa Calm   10.3 km/h 80 % 0 mm
07:17 -13.8 °C -15.6 °C 34235.8 hPa NW 5.1 km/h 7.7 km/h 80 % 0 mm
07:22 -13.8 °C -15.7 °C 34235.8 hPa NW 5.1 km/h 7.7 km/h 79 % 0 mm
07:32 -13.8 °C -15.7 °C 34235.8 hPa NW 5.1 km/h 10.3 km/h 79 % 0 mm
07:42 -13.7 °C -15.6 °C 34235.8 hPa NW 5.1 km/h 10.3 km/h 79 % 0 mm
07:47 -13.6 °C -15.6 °C 34235.8 hPa NW 2.6 km/h 7.7 km/h 78 % 0 mm
07:52 -13.4 °C -15.4 °C 34235.8 hPa NW 2.6 km/h 7.7 km/h 78 % 0 mm
07:57 -13.3 °C -15.3 °C 34235.8 hPa WNW 2.6 km/h 10.3 km/h 78 % 0 mm
08:02 -13.2 °C -15.2 °C 34235.8 hPa Calm   10.3 km/h 78 % 0 mm
08:07 -13.2 °C -15.2 °C 34235.8 hPa Calm   7.7 km/h 78 % 0 mm
08:12 -13.1 °C -15.1 °C 34235.8 hPa Calm   7.7 km/h 78 % 0 mm
08:17 -13.1 °C -15.1 °C 34235.8 hPa Calm   5.1 km/h 78 % 0 mm
08:22 -13 °C -14.9 °C 34235.8 hPa Calm   5.1 km/h 79 % 0 mm
08:27 -12.9 °C -14.8 °C 34235.8 hPa North 5.1 km/h 7.7 km/h 79 % 0 mm
08:32 -12.7 °C -14.6 °C 34235.8 hPa North 15.6 km/h 15.6 km/h 80 % 0 mm
08:37 -12.6 °C -14.3 °C 34235.8 hPa West 2.6 km/h 20.8 km/h 81 % 0 mm
08:42 -12.4 °C -14.2 °C 34235.8 hPa North 7.7 km/h 20.8 km/h 80 % 0 mm
08:47 -12.3 °C -14.1 °C 34235.8 hPa North 2.6 km/h 20.8 km/h 80 % 0 mm
08:52 -12.1 °C -14.1 °C 34235.8 hPa NNE 18.2 km/h 20.8 km/h 79 % 0 mm
09:02 -12.1 °C -14 °C 34235.8 hPa NNE 5.1 km/h 25.9 km/h 79 % 0 mm
09:07 -12.1 °C -14.1 °C 34235.8 hPa North 5.1 km/h 25.9 km/h 79 % 0 mm
09:12 -12.1 °C -14.1 °C 34235.8 hPa NW 12.9 km/h 25.9 km/h 79 % 0 mm
09:17 -12.1 °C -14.1 °C 34235.8 hPa NE 5.1 km/h 23.3 km/h 79 % 0 mm
09:22 -12.2 °C -14.1 °C 34235.8 hPa North 12.9 km/h 23.3 km/h 79 % 0 mm
09:32 -12.1 °C -13.9 °C 34235.8 hPa NNE 7.7 km/h 23.3 km/h 80 % 0 mm
09:42 -11.9 °C -13.9 °C 34246 hPa North 10.3 km/h 20.8 km/h 79 % 0 mm
09:47 -11.9 °C -13.9 °C 34235.8 hPa NW 5.1 km/h 25.9 km/h 79 % 0 mm
09:52 -11.8 °C -13.8 °C 34235.8 hPa ENE 10.3 km/h 25.9 km/h 79 % 0 mm
09:57 -11.8 °C -13.7 °C 34235.8 hPa WNW 2.6 km/h 15.6 km/h 79 % 0 mm
10:02 -11.7 °C -13.7 °C 34246 hPa NE 20.8 km/h 20.8 km/h 78 % 0 mm
10:12 -11.9 °C -13.9 °C 34246 hPa NE 7.7 km/h 25.9 km/h 78 % 0 mm
10:17 -11.9 °C -14 °C 34246 hPa NNW 15.6 km/h 25.9 km/h 78 % 0 mm
10:22 -12 °C -13.9 °C 34256.2 hPa NNE 12.9 km/h 25.9 km/h 79 % 0 mm
10:32 -12.1 °C -14 °C 34256.2 hPa NNW 5.1 km/h 23.3 km/h 79 % 0 mm
10:37 -12.1 °C -14 °C 34256.2 hPa North 12.9 km/h 20.8 km/h 79 % 0 mm
10:42 -12 °C -13.8 °C 34256.2 hPa North 10.3 km/h 20.8 km/h 80 % 0 mm
10:52 -12 °C -13.8 °C 34256.2 hPa ENE 7.7 km/h 20.8 km/h 80 % 0 mm
10:57 -11.8 °C -13.7 °C 34256.2 hPa North 10.3 km/h 25.9 km/h 80 % 0 mm
11:06 -11.7 °C -13.7 °C 34256.2 hPa NNW 2.6 km/h 25.9 km/h 79 % 0 mm
11:12 -11.9 °C -14.1 °C 34246 hPa North 18.2 km/h 20.8 km/h 77 % 0 mm
11:17 -12 °C -13.9 °C 34256.2 hPa NNE 15.6 km/h 36.2 km/h 79 % 0 mm
11:22 -12.1 °C -14 °C 34256.2 hPa NNE 23.3 km/h 36.2 km/h 79 % 0 mm
11:27 -12.1 °C -13.9 °C 34256.2 hPa North 20.8 km/h 36.2 km/h 80 % 0 mm
11:32 -12.2 °C -13.9 °C 34256.2 hPa NE 5.1 km/h 36.2 km/h 81 % 0 mm
11:37 -12.3 °C -14.2 °C 34256.2 hPa NE 2.6 km/h 31.1 km/h 80 % 0 mm
11:42 -12.4 °C -14.2 °C 34256.2 hPa North 12.9 km/h 31.1 km/h 81 % 0 mm
11:47 -12.4 °C -14.1 °C 34256.2 hPa NNE 15.6 km/h 31.1 km/h 82 % 0 mm
11:52 -12.4 °C -14.1 °C 34256.2 hPa NE 12.9 km/h 31.1 km/h 82 % 0 mm
11:57 -12.4 °C -13.9 °C 34256.2 hPa NW 10.3 km/h 31.1 km/h 83 % 0 mm
12:02 -12.4 °C -14.1 °C 34256.2 hPa NNE 18.2 km/h 31.1 km/h 82 % 0 mm
12:07 -12.4 °C -14.1 °C 34256.2 hPa NW 12.9 km/h 31.1 km/h 82 % 0 mm
12:12 -12.4 °C -14.1 °C 34256.2 hPa NNW 10.3 km/h 31.1 km/h 82 % 0 mm
12:17 -12.4 °C -14.1 °C 34256.2 hPa North 20.8 km/h 31.1 km/h 82 % 0 mm
12:22 -12.4 °C -14.1 °C 34256.2 hPa North 15.6 km/h 31.1 km/h 82 % 0 mm
12:32 -12.4 °C -14.1 °C 34246 hPa NNW 12.9 km/h 31.1 km/h 81 % 0 mm
12:42 -12.4 °C -14.1 °C 34246 hPa NNW 10.3 km/h 31.1 km/h 82 % 0 mm
12:52 -12.6 °C -14 °C 34246 hPa North 7.7 km/h 31.1 km/h 84 % 0 mm
12:57 -12.7 °C -14.1 °C 34246 hPa North 15.6 km/h 31.1 km/h 84 % 0 mm
13:02 -12.7 °C -14.2 °C 34246 hPa NNW 20.8 km/h 31.1 km/h 84 % 0 mm
13:12 -12.9 °C -14.2 °C 34246 hPa NNW 15.6 km/h 36.2 km/h 85 % 0 mm
13:17 -12.8 °C -14.1 °C 34246 hPa NNW 10.3 km/h 36.2 km/h 86 % 0 mm
13:22 -12.8 °C -14.2 °C 34246 hPa NW 5.1 km/h 31.1 km/h 85 % 0 mm
13:27 -12.8 °C -14.2 °C 34246 hPa NNE 23.3 km/h 36.2 km/h 85 % 0 mm
13:32 -12.9 °C -14.2 °C 34246 hPa NNW 28.5 km/h 36.2 km/h 85 % 0 mm
13:37 -13.1 °C -14.4 °C 34246 hPa North 31.1 km/h 38.8 km/h 85 % 0 mm
13:42 -13.2 °C -14.6 °C 34246 hPa North 25.9 km/h 38.8 km/h 85 % 0 mm
13:47 -13.3 °C -14.6 °C 34246 hPa NNW 20.8 km/h 41.4 km/h 85 % 0 mm
13:52 -13.4 °C -14.7 °C 34235.8 hPa NNW 25.9 km/h 41.4 km/h 85 % 0 mm
13:57 -13.5 °C -14.9 °C 34235.8 hPa NNW 33.6 km/h 44.1 km/h 84 % 7.62 mm
14:02 -13.5 °C -14.9 °C 34235.8 hPa NNW 12.9 km/h 44.1 km/h 84 % 7.62 mm
14:12 -13.7 °C -15.1 °C 34235.8 hPa Calm   44.1 km/h 84 % 7.62 mm
14:17 -13.7 °C -15.1 °C 34235.8 hPa NNE 20.8 km/h 41.4 km/h 84 % 7.62 mm
14:22 -13.7 °C -15.1 °C 34235.8 hPa NNW 15.6 km/h 41.4 km/h 84 % 7.62 mm
14:32 -13.8 °C -15.3 °C 34246 hPa NNE 18.2 km/h 41.4 km/h 83 % 7.62 mm
14:37 -13.9 °C -15.3 °C 34246 hPa NE 18.2 km/h 49.2 km/h 84 % 7.62 mm
14:42 -13.9 °C -15.2 °C 34235.8 hPa NE 25.9 km/h 49.2 km/h 85 % 7.62 mm
14:47 -14 °C -15.3 °C 34235.8 hPa NNW 18.2 km/h 49.2 km/h 85 % 7.62 mm
14:52 -14.1 °C -15.3 °C 34235.8 hPa NNE 31.1 km/h 41.4 km/h 85 % 7.62 mm
14:57 -14.1 °C -15.3 °C 34235.8 hPa NNW 18.2 km/h 33.6 km/h 86 % 0 mm
15:02 -14.1 °C -15.2 °C 34235.8 hPa NNW 23.3 km/h 33.6 km/h 87 % 0 mm
15:12 -14.1 °C -15.1 °C 34235.8 hPa North 23.3 km/h 33.6 km/h 88 % 0 mm
15:17 -14.1 °C -15.1 °C 34222.3 hPa NNW 7.7 km/h 33.6 km/h 88 % 7.62 mm
15:22 -14.1 °C -15.1 °C 34222.3 hPa NE 33.6 km/h 38.8 km/h 88 % 7.62 mm
15:32 -14.1 °C -15.2 °C 34222.3 hPa NW 33.6 km/h 49.2 km/h 87 % 7.62 mm
15:42 -14.1 °C -15.2 °C 34222.3 hPa North 12.9 km/h 46.7 km/h 87 % 12.7 mm
15:47 -14.1 °C -15.2 °C 34222.3 hPa NNE 5.1 km/h 41.4 km/h 87 % 12.7 mm
15:52 -14.2 °C -15.4 °C 34222.3 hPa North 44.1 km/h 44.1 km/h 86 % 12.7 mm
15:57 -14.3 °C -15.4 °C 34222.3 hPa NNE 25.9 km/h 49.2 km/h 87 % 12.7 mm
16:02 -14.3 °C -15.3 °C 34222.3 hPa NW 5.1 km/h 49.2 km/h 88 % 12.7 mm
16:12 -14.4 °C -15.6 °C 34222.3 hPa NNW 20.8 km/h 49.2 km/h 87 % 12.7 mm
16:17 -14.6 °C -15.6 °C 34222.3 hPa NNE 10.3 km/h 44.1 km/h 88 % 12.7 mm
16:22 -14.6 °C -15.5 °C 34222.3 hPa NE 25.9 km/h 44.1 km/h 89 % 12.7 mm
16:32 -14.7 °C -15.7 °C 34222.3 hPa NNW 18.2 km/h 38.8 km/h 88 % 12.7 mm
16:37 -14.7 °C -15.6 °C 34222.3 hPa North 20.8 km/h 54.4 km/h 89 % 7.62 mm
16:42 -14.7 °C -15.6 °C 34222.3 hPa NNE 5.1 km/h 54.4 km/h 89 % 7.62 mm
16:52 -14.7 °C -15.6 °C 34212.1 hPa North 31.1 km/h 36.2 km/h 90 % 7.62 mm
16:57 -14.7 °C -15.6 °C 34212.1 hPa NNE 10.3 km/h 41.4 km/h 90 % 12.7 mm
17:02 -14.8 °C -15.6 °C 34212.1 hPa NNE 7.7 km/h 41.4 km/h 90 % 12.7 mm
17:07 -14.8 °C -15.7 °C 34212.1 hPa NNE 25.9 km/h 41.4 km/h 90 % 7.62 mm
17:12 -14.8 °C -15.7 °C 34212.1 hPa NNW 18.2 km/h 41.4 km/h 90 % 7.62 mm
17:22 -14.8 °C -15.6 °C 34212.1 hPa NNE 15.6 km/h 41.4 km/h 91 % 7.62 mm
17:32 -14.9 °C -15.7 °C 34212.1 hPa NNW 12.9 km/h 41.4 km/h 90 % 7.62 mm
17:37 -14.9 °C -15.7 °C 34212.1 hPa NNW 10.3 km/h 36.2 km/h 90 % 12.7 mm
17:42 -14.9 °C -15.8 °C 34212.1 hPa North 7.7 km/h 36.2 km/h 90 % 12.7 mm
17:47 -14.9 °C -15.7 °C 34212.1 hPa North 20.8 km/h 33.6 km/h 91 % 12.7 mm
17:52 -14.9 °C -15.7 °C 34212.1 hPa NNE 12.9 km/h 31.1 km/h 91 % 12.7 mm
17:57 -14.9 °C -15.7 °C 34212.1 hPa NNE 12.9 km/h 36.2 km/h 91 % 20.32 mm
18:02 -14.9 °C -15.6 °C 34212.1 hPa North 10.3 km/h 36.2 km/h 92 % 20.32 mm
18:12 -14.9 °C -15.6 °C 34212.1 hPa ENE 10.3 km/h 36.2 km/h 92 % 20.32 mm
18:17 -14.9 °C -15.6 °C 34212.1 hPa North 15.6 km/h 28.5 km/h 92 % 25.4 mm
18:22 -15.1 °C -15.8 °C 34212.1 hPa NE 33.6 km/h 33.6 km/h 91 % 25.4 mm
18:32 -15.1 °C -15.8 °C 34212.1 hPa NE 31.1 km/h 41.4 km/h 91 % 33.02 mm
18:37 -15.1 °C -15.8 °C 34212.1 hPa ENE 10.3 km/h 41.4 km/h 91 % 25.4 mm
18:42 -15.1 °C -15.8 °C 34222.3 hPa NNE 12.9 km/h 41.4 km/h 91 % 25.4 mm
18:47 -15.2 °C -15.9 °C 34212.1 hPa NNE 15.6 km/h 41.4 km/h 91 % 25.4 mm
18:52 -15.2 °C -15.9 °C 34212.1 hPa NNW 20.8 km/h 41.4 km/h 91 % 25.4 mm
18:57 -15.2 °C -15.9 °C 34212.1 hPa NW 7.7 km/h 36.2 km/h 91 % 20.32 mm
19:02 -15.2 °C -15.8 °C 34212.1 hPa NNE 18.2 km/h 36.2 km/h 92 % 20.32 mm
19:07 -15.2 °C -15.9 °C 34212.1 hPa NNW 18.2 km/h 31.1 km/h 91 % 25.4 mm
19:12 -15.2 °C -15.9 °C 34222.3 hPa NNW 18.2 km/h 31.1 km/h 92 % 25.4 mm
19:22 -15.4 °C -16.1 °C 34222.3 hPa NNW 20.8 km/h 31.1 km/h 91 % 25.4 mm
19:27 -15.4 °C -16.1 °C 34222.3 hPa NE 15.6 km/h 44.1 km/h 91 % 25.4 mm
19:32 -15.4 °C -16.2 °C 34212.1 hPa NNW 15.6 km/h 44.1 km/h 91 % 25.4 mm
19:37 -15.5 °C -16.2 °C 34212.1 hPa NE 12.9 km/h 41.4 km/h 91 % 25.4 mm
19:42 -15.5 °C -16.2 °C 34212.1 hPa NNW 18.2 km/h 41.4 km/h 91 % 25.4 mm
19:52 -15.6 °C -16.2 °C 34222.3 hPa NE 20.8 km/h 38.8 km/h 92 % 33.02 mm
19:57 -15.7 °C -16.4 °C 34222.3 hPa ENE 12.9 km/h 46.7 km/h 91 % 38.1 mm
20:02 -15.7 °C -16.4 °C 34222.3 hPa NE 20.8 km/h 46.7 km/h 91 % 38.1 mm
20:12 -15.8 °C -16.5 °C 34222.3 hPa ENE 5.1 km/h 46.7 km/h 91 % 33.02 mm
20:17 -15.8 °C -16.6 °C 34222.3 hPa NNW 15.6 km/h 49.2 km/h 91 % 25.4 mm
20:27 -15.9 °C -16.6 °C 34222.3 hPa NE 7.7 km/h 38.8 km/h 91 % 25.4 mm
20:32 -15.9 °C -16.6 °C 34222.3 hPa NNW 18.2 km/h 38.8 km/h 92 % 25.4 mm
20:42 -15.9 °C -16.6 °C 34222.3 hPa NE 12.9 km/h 38.8 km/h 92 % 12.7 mm
20:47 -15.9 °C -16.6 °C 34222.3 hPa NNW 10.3 km/h 36.2 km/h 92 % 12.7 mm
20:52 -15.9 °C -16.6 °C 34222.3 hPa NE 7.7 km/h 36.2 km/h 92 % 12.7 mm
20:57 -16 °C -16.7 °C 34235.8 hPa NE 12.9 km/h 31.1 km/h 92 % 12.7 mm
21:02 -16 °C -16.7 °C 34235.8 hPa NE 7.7 km/h 31.1 km/h 92 % 12.7 mm
21:12 -16 °C -16.6 °C 34235.8 hPa NW 10.3 km/h 31.1 km/h 93 % 12.7 mm
21:17 -16 °C -16.7 °C 34235.8 hPa North 12.9 km/h 28.5 km/h 92 % 20.32 mm
21:22 -16 °C -16.7 °C 34235.8 hPa NE 12.9 km/h 31.1 km/h 92 % 20.32 mm
21:32 -16 °C -16.7 °C 34235.8 hPa NNE 10.3 km/h 31.1 km/h 92 % 12.7 mm
21:37 -16 °C -16.6 °C 34235.8 hPa NE 23.3 km/h 23.3 km/h 93 % 12.7 mm
21:42 -16 °C -16.7 °C 34246 hPa NNE 12.9 km/h 20.8 km/h 92 % 12.7 mm
21:47 -16 °C -16.7 °C 34235.8 hPa NNE 15.6 km/h 31.1 km/h 92 % 12.7 mm
21:52 -16 °C -16.7 °C 34246 hPa NE 7.7 km/h 31.1 km/h 92 % 12.7 mm
22:02 -16.1 °C -16.6 °C 34246 hPa NE 7.7 km/h 25.9 km/h 93 % 12.7 mm
22:12 -16.1 °C -16.6 °C 34246 hPa ENE 20.8 km/h 25.9 km/h 93 % 12.7 mm
22:17 -16.1 °C -16.6 °C 34246 hPa NE 10.3 km/h 25.9 km/h 93 % 7.62 mm
22:22 -16.1 °C -16.6 °C 34246 hPa NE 10.3 km/h 25.9 km/h 93 % 7.62 mm
22:27 -16.1 °C -16.6 °C 34235.8 hPa ENE 7.7 km/h 23.3 km/h 93 % 7.62 mm
22:32 -16.1 °C -16.6 °C 34235.8 hPa ENE 10.3 km/h 23.3 km/h 93 % 7.62 mm
22:37 -16.1 °C -16.6 °C 34235.8 hPa ENE 5.1 km/h 18.2 km/h 93 % 7.62 mm
22:42 -16.1 °C -16.6 °C 34235.8 hPa East 10.3 km/h 18.2 km/h 93 % 7.62 mm
22:52 -16.1 °C -16.6 °C 34256.2 hPa ENE 2.6 km/h 18.2 km/h 93 % 12.7 mm
22:57 -16.1 °C -16.6 °C 34246 hPa NE 2.6 km/h 15.6 km/h 93 % 7.62 mm
23:07 -16.1 °C -16.7 °C 34246 hPa NNE 7.7 km/h 10.3 km/h 93 % 7.62 mm
23:12 -16.1 °C -16.7 °C 34256.2 hPa Calm   10.3 km/h 93 % 7.62 mm
23:17 -16.1 °C -16.7 °C 34256.2 hPa Calm   10.3 km/h 93 % 7.62 mm
23:22 -16.1 °C -16.7 °C 34246 hPa North 2.6 km/h 7.7 km/h 93 % 7.62 mm
23:27 -16.1 °C -16.6 °C 34246 hPa North 5.1 km/h 5.1 km/h 93 % 7.62 mm
23:32 -16.1 °C -16.7 °C 34256.2 hPa Calm   5.1 km/h 93 % 7.62 mm
23:37 -16.1 °C -16.6 °C 34256.2 hPa Calm   5.1 km/h 93 % 7.62 mm
23:42 -16.1 °C -16.7 °C 34256.2 hPa Calm   5.1 km/h 93 % 7.62 mm
23:52 -16.1 °C -16.7 °C 34256.2 hPa Calm     93 % 0 mm
23:57 -16.1 °C -16.7 °C 34256.2 hPa Calm     93 % 0 mm
Meteo18
Compliments of Weather Underground - 4 mb

Script developed by  Jim McMurry - jmcmurry@mwt.net Adapted for the template by  Wim van der Kuil - Leuven-Template.eu

You find our weather info also at:

European Weather Network

Weather Underground

Equipment we use:

Weather-station
Davis Vue

Weather-program
Meteobridge

Weather-server
Raspberry PI 2 B+

Provider
1 and 1

Davis Vue

Meteobridge

Raspberry PI 2 B+

1 and 1